sensor_id;sensor_type;location;lat;lon;timestamp;temperature;humidity
21895;DHT22;11112;51.270;7.224;2023-06-14T00:00:37;22.30;58.60
21895;DHT22;11112;51.270;7.224;2023-06-14T00:03:10;22.30;58.60
21895;DHT22;11112;51.270;7.224;2023-06-14T00:05:37;22.20;59.40
21895;DHT22;11112;51.270;7.224;2023-06-14T00:08:11;22.10;59.10
21895;DHT22;11112;51.270;7.224;2023-06-14T00:10:38;22.10;59.40
21895;DHT22;11112;51.270;7.224;2023-06-14T00:13:08;22.10;59.60
21895;DHT22;11112;51.270;7.224;2023-06-14T00:15:35;22.10;59.60
21895;DHT22;11112;51.270;7.224;2023-06-14T00:18:04;22.10;59.30
21895;DHT22;11112;51.270;7.224;2023-06-14T00:20:33;22.10;59.20
21895;DHT22;11112;51.270;7.224;2023-06-14T00:23:00;22.10;59.30
21895;DHT22;11112;51.270;7.224;2023-06-14T00:25:27;22.00;59.50
21895;DHT22;11112;51.270;7.224;2023-06-14T00:27:55;22.00;59.60
21895;DHT22;11112;51.270;7.224;2023-06-14T00:30:22;21.90;59.60
21895;DHT22;11112;51.270;7.224;2023-06-14T00:32:50;22.00;59.70
21895;DHT22;11112;51.270;7.224;2023-06-14T00:35:17;22.00;59.90
21895;DHT22;11112;51.270;7.224;2023-06-14T00:37:45;21.90;59.80
21895;DHT22;11112;51.270;7.224;2023-06-14T00:40:12;21.80;59.80
21895;DHT22;11112;51.270;7.224;2023-06-14T00:42:40;21.80;60.10
21895;DHT22;11112;51.270;7.224;2023-06-14T00:45:07;21.80;60.00
21895;DHT22;11112;51.270;7.224;2023-06-14T00:47:36;21.80;60.10
21895;DHT22;11112;51.270;7.224;2023-06-14T00:50:07;21.70;59.90
21895;DHT22;11112;51.270;7.224;2023-06-14T00:52:34;21.80;60.00
21895;DHT22;11112;51.270;7.224;2023-06-14T00:55:04;21.70;60.20
21895;DHT22;11112;51.270;7.224;2023-06-14T00:57:31;21.70;60.30
21895;DHT22;11112;51.270;7.224;2023-06-14T00:59:58;21.70;60.40
21895;DHT22;11112;51.270;7.224;2023-06-14T01:02:26;21.70;60.60
21895;DHT22;11112;51.270;7.224;2023-06-14T01:04:53;21.70;60.90
21895;DHT22;11112;51.270;7.224;2023-06-14T01:07:28;21.60;61.00
21895;DHT22;11112;51.270;7.224;2023-06-14T01:10:17;21.60;61.10
21895;DHT22;11112;51.270;7.224;2023-06-14T01:12:52;21.60;61.10
21895;DHT22;11112;51.270;7.224;2023-06-14T01:15:24;21.50;61.00
21895;DHT22;11112;51.270;7.224;2023-06-14T01:17:52;21.30;61.50
21895;DHT22;11112;51.270;7.224;2023-06-14T01:20:20;21.30;61.40
21895;DHT22;11112;51.270;7.224;2023-06-14T01:22:53;21.40;61.20
21895;DHT22;11112;51.270;7.224;2023-06-14T01:25:21;21.30;61.10
21895;DHT22;11112;51.270;7.224;2023-06-14T01:27:49;21.30;61.20
21895;DHT22;11112;51.270;7.224;2023-06-14T01:30:19;21.30;61.50
21895;DHT22;11112;51.270;7.224;2023-06-14T01:32:47;21.30;61.60
21895;DHT22;11112;51.270;7.224;2023-06-14T01:35:15;21.30;61.80
21895;DHT22;11112;51.270;7.224;2023-06-14T01:37:43;21.30;61.80
21895;DHT22;11112;51.270;7.224;2023-06-14T01:40:12;21.30;61.80
21895;DHT22;11112;51.270;7.224;2023-06-14T01:42:41;21.30;61.80
21895;DHT22;11112;51.270;7.224;2023-06-14T01:45:09;21.30;61.80
21895;DHT22;11112;51.270;7.224;2023-06-14T01:47:37;21.20;61.70
21895;DHT22;11112;51.270;7.224;2023-06-14T01:50:05;21.20;61.90
21895;DHT22;11112;51.270;7.224;2023-06-14T01:52:33;21.20;62.00
21895;DHT22;11112;51.270;7.224;2023-06-14T01:55:00;21.20;62.00
21895;DHT22;11112;51.270;7.224;2023-06-14T01:57:30;21.20;62.00
21895;DHT22;11112;51.270;7.224;2023-06-14T01:59:57;21.20;62.30
21895;DHT22;11112;51.270;7.224;2023-06-14T02:02:24;21.20;62.40
21895;DHT22;11112;51.270;7.224;2023-06-14T02:04:52;21.10;62.50
21895;DHT22;11112;51.270;7.224;2023-06-14T02:07:22;21.10;62.50
21895;DHT22;11112;51.270;7.224;2023-06-14T02:09:49;21.10;62.20
21895;DHT22;11112;51.270;7.224;2023-06-14T02:12:16;21.10;61.90
21895;DHT22;11112;51.270;7.224;2023-06-14T02:14:45;21.00;62.20
21895;DHT22;11112;51.270;7.224;2023-06-14T02:17:12;21.00;62.10
21895;DHT22;11112;51.270;7.224;2023-06-14T02:19:39;21.00;62.10
21895;DHT22;11112;51.270;7.224;2023-06-14T02:22:08;20.90;62.30
21895;DHT22;11112;51.270;7.224;2023-06-14T02:24:35;20.90;62.30
21895;DHT22;11112;51.270;7.224;2023-06-14T02:27:02;20.90;62.60
21895;DHT22;11112;51.270;7.224;2023-06-14T02:29:29;20.90;62.80
21895;DHT22;11112;51.270;7.224;2023-06-14T02:31:58;20.80;62.90
21895;DHT22;11112;51.270;7.224;2023-06-14T02:34:25;20.90;62.90
21895;DHT22;11112;51.270;7.224;2023-06-14T02:36:52;20.90;63.00
21895;DHT22;11112;51.270;7.224;2023-06-14T02:39:19;20.80;62.70
21895;DHT22;11112;51.270;7.224;2023-06-14T02:41:48;20.70;63.10
21895;DHT22;11112;51.270;7.224;2023-06-14T02:44:17;20.70;63.20
21895;DHT22;11112;51.270;7.224;2023-06-14T02:46:45;20.70;63.20
21895;DHT22;11112;51.270;7.224;2023-06-14T02:49:13;20.60;63.30
21895;DHT22;11112;51.270;7.224;2023-06-14T02:51:40;20.60;63.30
21895;DHT22;11112;51.270;7.224;2023-06-14T02:54:07;20.60;63.40
21895;DHT22;11112;51.270;7.224;2023-06-14T02:56:34;20.60;63.40
21895;DHT22;11112;51.270;7.224;2023-06-14T02:59:01;20.60;63.20
21895;DHT22;11112;51.270;7.224;2023-06-14T03:01:29;20.60;63.10
21895;DHT22;11112;51.270;7.224;2023-06-14T03:04:00;20.60;63.10
21895;DHT22;11112;51.270;7.224;2023-06-14T03:06:30;20.60;63.10
21895;DHT22;11112;51.270;7.224;2023-06-14T03:08:57;20.50;63.50
21895;DHT22;11112;51.270;7.224;2023-06-14T03:11:26;20.60;63.30
21895;DHT22;11112;51.270;7.224;2023-06-14T03:13:54;20.60;63.30
21895;DHT22;11112;51.270;7.224;2023-06-14T03:16:22;20.50;63.00
21895;DHT22;11112;51.270;7.224;2023-06-14T03:18:50;20.50;63.20
21895;DHT22;11112;51.270;7.224;2023-06-14T03:21:17;20.50;63.40
21895;DHT22;11112;51.270;7.224;2023-06-14T03:23:46;20.50;63.60
21895;DHT22;11112;51.270;7.224;2023-06-14T03:26:13;20.50;63.80
21895;DHT22;11112;51.270;7.224;2023-06-14T03:28:43;20.50;63.90
21895;DHT22;11112;51.270;7.224;2023-06-14T03:31:10;20.50;64.00
21895;DHT22;11112;51.270;7.224;2023-06-14T03:33:37;20.40;63.70
21895;DHT22;11112;51.270;7.224;2023-06-14T03:36:05;20.40;63.80
21895;DHT22;11112;51.270;7.224;2023-06-14T03:38:33;20.40;64.00
21895;DHT22;11112;51.270;7.224;2023-06-14T03:41:01;20.40;63.80
21895;DHT22;11112;51.270;7.224;2023-06-14T03:43:29;20.40;63.90
21895;DHT22;11112;51.270;7.224;2023-06-14T03:45:56;20.20;63.90
21895;DHT22;11112;51.270;7.224;2023-06-14T03:48:23;20.20;64.30
21895;DHT22;11112;51.270;7.224;2023-06-14T03:50:51;20.20;64.20
21895;DHT22;11112;51.270;7.224;2023-06-14T03:53:19;20.10;64.20
21895;DHT22;11112;51.270;7.224;2023-06-14T03:55:49;20.00;65.20
21895;DHT22;11112;51.270;7.224;2023-06-14T03:58:19;20.00;65.00
21895;DHT22;11112;51.270;7.224;2023-06-14T04:00:46;20.10;64.90
21895;DHT22;11112;51.270;7.224;2023-06-14T04:03:13;20.10;64.50
21895;DHT22;11112;51.270;7.224;2023-06-14T04:05:41;20.10;64.70
21895;DHT22;11112;51.270;7.224;2023-06-14T04:08:08;20.10;64.70
21895;DHT22;11112;51.270;7.224;2023-06-14T04:10:36;20.20;64.70
21895;DHT22;11112;51.270;7.224;2023-06-14T04:13:04;20.20;64.70
21895;DHT22;11112;51.270;7.224;2023-06-14T04:15:34;20.20;64.70
21895;DHT22;11112;51.270;7.224;2023-06-14T04:18:01;20.30;64.50
21895;DHT22;11112;51.270;7.224;2023-06-14T04:20:28;20.30;64.70
21895;DHT22;11112;51.270;7.224;2023-06-14T04:22:56;20.30;64.80
21895;DHT22;11112;51.270;7.224;2023-06-14T04:25:23;20.30;65.00
21895;DHT22;11112;51.270;7.224;2023-06-14T04:27:53;20.30;64.90
21895;DHT22;11112;51.270;7.224;2023-06-14T04:30:20;20.40;64.70
21895;DHT22;11112;51.270;7.224;2023-06-14T04:32:54;20.40;64.80
21895;DHT22;11112;51.270;7.224;2023-06-14T04:35:21;20.40;64.60
21895;DHT22;11112;51.270;7.224;2023-06-14T04:37:49;20.50;64.50
21895;DHT22;11112;51.270;7.224;2023-06-14T04:40:17;20.50;64.40
21895;DHT22;11112;51.270;7.224;2023-06-14T04:42:44;20.60;64.50
21895;DHT22;11112;51.270;7.224;2023-06-14T04:45:11;20.70;64.20
21895;DHT22;11112;51.270;7.224;2023-06-14T04:47:40;20.80;64.10
21895;DHT22;11112;51.270;7.224;2023-06-14T04:50:10;20.90;63.70
21895;DHT22;11112;51.270;7.224;2023-06-14T04:52:38;21.00;63.60
21895;DHT22;11112;51.270;7.224;2023-06-14T04:55:06;21.10;63.30
21895;DHT22;11112;51.270;7.224;2023-06-14T04:57:33;21.20;63.10
21895;DHT22;11112;51.270;7.224;2023-06-14T05:00:00;21.30;63.50
21895;DHT22;11112;51.270;7.224;2023-06-14T05:02:29;21.40;62.70
21895;DHT22;11112;51.270;7.224;2023-06-14T05:04:57;21.40;62.00
21895;DHT22;11112;51.270;7.224;2023-06-14T05:07:26;21.40;61.20
21895;DHT22;11112;51.270;7.224;2023-06-14T05:09:53;21.40;62.00
21895;DHT22;11112;51.270;7.224;2023-06-14T05:12:20;21.40;61.30
21895;DHT22;11112;51.270;7.224;2023-06-14T05:14:49;21.40;61.70
21895;DHT22;11112;51.270;7.224;2023-06-14T05:17:17;21.40;62.70
21895;DHT22;11112;51.270;7.224;2023-06-14T05:19:45;21.50;61.90
21895;DHT22;11112;51.270;7.224;2023-06-14T05:22:12;21.60;62.50
21895;DHT22;11112;51.270;7.224;2023-06-14T05:24:41;21.70;61.70
21895;DHT22;11112;51.270;7.224;2023-06-14T05:27:08;21.70;61.70
21895;DHT22;11112;51.270;7.224;2023-06-14T05:29:36;21.70;61.60
21895;DHT22;11112;51.270;7.224;2023-06-14T05:32:04;21.70;61.60
21895;DHT22;11112;51.270;7.224;2023-06-14T05:34:31;21.80;61.60
21895;DHT22;11112;51.270;7.224;2023-06-14T05:36:58;21.70;60.90
21895;DHT22;11112;51.270;7.224;2023-06-14T05:39:25;21.80;60.80
21895;DHT22;11112;51.270;7.224;2023-06-14T05:41:54;21.80;61.00
21895;DHT22;11112;51.270;7.224;2023-06-14T05:44:21;21.80;60.90
21895;DHT22;11112;51.270;7.224;2023-06-14T05:46:48;21.80;60.10
21895;DHT22;11112;51.270;7.224;2023-06-14T05:49:15;21.80;60.40
21895;DHT22;11112;51.270;7.224;2023-06-14T05:51:43;21.80;60.30
21895;DHT22;11112;51.270;7.224;2023-06-14T05:54:10;21.80;60.30
21895;DHT22;11112;51.270;7.224;2023-06-14T05:56:37;21.80;60.10
21895;DHT22;11112;51.270;7.224;2023-06-14T05:59:06;21.90;60.10
21895;DHT22;11112;51.270;7.224;2023-06-14T06:01:33;21.90;60.30
21895;DHT22;11112;51.270;7.224;2023-06-14T06:04:02;22.00;59.80
21895;DHT22;11112;51.270;7.224;2023-06-14T06:06:29;22.10;60.40
21895;DHT22;11112;51.270;7.224;2023-06-14T06:08:56;22.10;60.50
21895;DHT22;11112;51.270;7.224;2023-06-14T06:11:23;22.20;59.70
21895;DHT22;11112;51.270;7.224;2023-06-14T06:13:51;22.20;59.80
21895;DHT22;11112;51.270;7.224;2023-06-14T06:16:19;22.20;59.20
21895;DHT22;11112;51.270;7.224;2023-06-14T06:18:47;22.20;59.80
21895;DHT22;11112;51.270;7.224;2023-06-14T06:21:14;22.20;59.40
21895;DHT22;11112;51.270;7.224;2023-06-14T06:23:41;22.20;59.40
21895;DHT22;11112;51.270;7.224;2023-06-14T06:26:08;22.20;60.20
21895;DHT22;11112;51.270;7.224;2023-06-14T06:28:35;22.20;59.90
21895;DHT22;11112;51.270;7.224;2023-06-14T06:31:03;22.20;59.80
21895;DHT22;11112;51.270;7.224;2023-06-14T06:33:33;22.20;59.50
21895;DHT22;11112;51.270;7.224;2023-06-14T06:36:03;22.30;59.40
21895;DHT22;11112;51.270;7.224;2023-06-14T06:38:34;22.40;59.10
21895;DHT22;11112;51.270;7.224;2023-06-14T06:41:02;22.40;59.50
21895;DHT22;11112;51.270;7.224;2023-06-14T06:43:34;22.60;59.60
21895;DHT22;11112;51.270;7.224;2023-06-14T06:46:11;22.70;59.30
21895;DHT22;11112;51.270;7.224;2023-06-14T06:48:39;22.70;58.80
21895;DHT22;11112;51.270;7.224;2023-06-14T06:51:10;22.70;58.30
21895;DHT22;11112;51.270;7.224;2023-06-14T06:53:38;22.80;58.50
21895;DHT22;11112;51.270;7.224;2023-06-14T06:56:05;22.90;58.40
21895;DHT22;11112;51.270;7.224;2023-06-14T06:58:33;23.00;57.60
21895;DHT22;11112;51.270;7.224;2023-06-14T07:01:06;23.00;56.50
21895;DHT22;11112;51.270;7.224;2023-06-14T07:03:34;23.20;56.30
21895;DHT22;11112;51.270;7.224;2023-06-14T07:06:04;23.30;56.50
21895;DHT22;11112;51.270;7.224;2023-06-14T07:08:31;23.40;54.10
21895;DHT22;11112;51.270;7.224;2023-06-14T07:10:58;23.40;55.10
21895;DHT22;11112;51.270;7.224;2023-06-14T07:13:25;23.40;53.40
21895;DHT22;11112;51.270;7.224;2023-06-14T07:15:54;23.40;52.90
21895;DHT22;11112;51.270;7.224;2023-06-14T07:18:22;23.40;52.90
21895;DHT22;11112;51.270;7.224;2023-06-14T07:20:49;23.50;53.30
21895;DHT22;11112;51.270;7.224;2023-06-14T07:23:17;23.60;54.20
21895;DHT22;11112;51.270;7.224;2023-06-14T07:25:45;23.60;55.20
21895;DHT22;11112;51.270;7.224;2023-06-14T07:28:13;23.80;55.00
21895;DHT22;11112;51.270;7.224;2023-06-14T07:30:40;25.40;53.40
21895;DHT22;11112;51.270;7.224;2023-06-14T07:33:07;27.50;50.20
21895;DHT22;11112;51.270;7.224;2023-06-14T07:35:35;27.20;49.30
21895;DHT22;11112;51.270;7.224;2023-06-14T07:38:02;26.50;49.40
21895;DHT22;11112;51.270;7.224;2023-06-14T07:40:31;25.80;50.20
21895;DHT22;11112;51.270;7.224;2023-06-14T07:42:58;25.30;51.10
21895;DHT22;11112;51.270;7.224;2023-06-14T07:45:27;24.90;52.20
21895;DHT22;11112;51.270;7.224;2023-06-14T07:47:54;24.70;51.90
21895;DHT22;11112;51.270;7.224;2023-06-14T07:50:22;24.50;51.70
21895;DHT22;11112;51.270;7.224;2023-06-14T07:52:49;24.30;51.70
21895;DHT22;11112;51.270;7.224;2023-06-14T07:55:16;24.20;52.70
21895;DHT22;11112;51.270;7.224;2023-06-14T07:57:46;24.20;53.10
21895;DHT22;11112;51.270;7.224;2023-06-14T08:00:14;24.10;53.60
21895;DHT22;11112;51.270;7.224;2023-06-14T08:02:43;24.00;53.60
21895;DHT22;11112;51.270;7.224;2023-06-14T08:05:11;24.00;53.40
21895;DHT22;11112;51.270;7.224;2023-06-14T08:07:40;23.90;54.00
21895;DHT22;11112;51.270;7.224;2023-06-14T08:10:08;23.90;54.30
21895;DHT22;11112;51.270;7.224;2023-06-14T08:12:37;23.90;54.20
21895;DHT22;11112;51.270;7.224;2023-06-14T08:15:07;23.90;54.20
21895;DHT22;11112;51.270;7.224;2023-06-14T08:17:35;23.90;54.20
21895;DHT22;11112;51.270;7.224;2023-06-14T08:20:04;23.80;53.40
21895;DHT22;11112;51.270;7.224;2023-06-14T08:22:33;23.80;54.00
21895;DHT22;11112;51.270;7.224;2023-06-14T08:25:01;23.80;54.20
21895;DHT22;11112;51.270;7.224;2023-06-14T08:27:30;23.80;54.60
21895;DHT22;11112;51.270;7.224;2023-06-14T08:29:57;23.80;54.70
21895;DHT22;11112;51.270;7.224;2023-06-14T08:32:26;23.80;55.10
21895;DHT22;11112;51.270;7.224;2023-06-14T08:34:54;23.80;55.00
21895;DHT22;11112;51.270;7.224;2023-06-14T08:37:22;23.70;54.50
21895;DHT22;11112;51.270;7.224;2023-06-14T08:39:50;23.60;54.00
21895;DHT22;11112;51.270;7.224;2023-06-14T08:42:19;23.50;54.40
21895;DHT22;11112;51.270;7.224;2023-06-14T08:44:48;23.50;55.00
21895;DHT22;11112;51.270;7.224;2023-06-14T08:47:15;23.50;54.60
21895;DHT22;11112;51.270;7.224;2023-06-14T08:49:46;23.50;54.50
21895;DHT22;11112;51.270;7.224;2023-06-14T08:52:16;23.50;54.50
21895;DHT22;11112;51.270;7.224;2023-06-14T08:54:46;23.60;54.20
21895;DHT22;11112;51.270;7.224;2023-06-14T08:57:14;23.60;53.50
21895;DHT22;11112;51.270;7.224;2023-06-14T08:59:46;23.50;51.80
21895;DHT22;11112;51.270;7.224;2023-06-14T09:02:18;23.60;52.30
21895;DHT22;11112;51.270;7.224;2023-06-14T09:04:49;23.50;52.50
21895;DHT22;11112;51.270;7.224;2023-06-14T09:07:16;23.50;53.60
21895;DHT22;11112;51.270;7.224;2023-06-14T09:09:44;23.60;53.30
21895;DHT22;11112;51.270;7.224;2023-06-14T09:12:11;23.60;53.10
21895;DHT22;11112;51.270;7.224;2023-06-14T09:14:39;23.60;53.30
21895;DHT22;11112;51.270;7.224;2023-06-14T09:17:08;23.60;53.80
21895;DHT22;11112;51.270;7.224;2023-06-14T09:19:35;23.60;53.50
21895;DHT22;11112;51.270;7.224;2023-06-14T09:22:05;23.60;53.00
21895;DHT22;11112;51.270;7.224;2023-06-14T09:24:37;23.60;52.60
21895;DHT22;11112;51.270;7.224;2023-06-14T09:27:05;23.60;53.00
21895;DHT22;11112;51.270;7.224;2023-06-14T09:29:33;23.50;53.50
21895;DHT22;11112;51.270;7.224;2023-06-14T09:32:00;23.60;53.60
21895;DHT22;11112;51.270;7.224;2023-06-14T09:34:28;23.60;53.80
21895;DHT22;11112;51.270;7.224;2023-06-14T09:36:55;23.60;53.80
21895;DHT22;11112;51.270;7.224;2023-06-14T09:39:23;23.60;53.30
21895;DHT22;11112;51.270;7.224;2023-06-14T09:41:51;23.60;52.80
21895;DHT22;11112;51.270;7.224;2023-06-14T09:44:18;23.50;53.30
21895;DHT22;11112;51.270;7.224;2023-06-14T09:46:46;23.40;53.30
21895;DHT22;11112;51.270;7.224;2023-06-14T09:49:13;23.50;54.40
21895;DHT22;11112;51.270;7.224;2023-06-14T09:51:43;23.60;53.90
21895;DHT22;11112;51.270;7.224;2023-06-14T09:54:14;23.50;54.00
21895;DHT22;11112;51.270;7.224;2023-06-14T09:56:45;23.60;53.80
21895;DHT22;11112;51.270;7.224;2023-06-14T09:59:12;23.60;54.20
21895;DHT22;11112;51.270;7.224;2023-06-14T10:01:42;23.60;53.80
21895;DHT22;11112;51.270;7.224;2023-06-14T10:04:10;23.50;54.50
21895;DHT22;11112;51.270;7.224;2023-06-14T10:06:40;23.50;54.50
21895;DHT22;11112;51.270;7.224;2023-06-14T10:09:10;23.50;54.70
21895;DHT22;11112;51.270;7.224;2023-06-14T10:11:38;23.50;54.60
21895;DHT22;11112;51.270;7.224;2023-06-14T10:14:12;23.50;54.70
21895;DHT22;11112;51.270;7.224;2023-06-14T10:16:47;23.50;55.00
21895;DHT22;11112;51.270;7.224;2023-06-14T10:19:20;23.50;54.60
21895;DHT22;11112;51.270;7.224;2023-06-14T10:21:57;23.60;55.20
21895;DHT22;11112;51.270;7.224;2023-06-14T10:24:30;23.60;54.90
21895;DHT22;11112;51.270;7.224;2023-06-14T10:26:59;23.50;54.30
21895;DHT22;11112;51.270;7.224;2023-06-14T10:29:29;23.50;55.10
21895;DHT22;11112;51.270;7.224;2023-06-14T10:31:58;23.50;54.50
21895;DHT22;11112;51.270;7.224;2023-06-14T10:34:27;23.50;54.40
21895;DHT22;11112;51.270;7.224;2023-06-14T10:37:05;23.50;55.00
21895;DHT22;11112;51.270;7.224;2023-06-14T10:39:40;23.60;54.90
21895;DHT22;11112;51.270;7.224;2023-06-14T10:42:08;23.50;54.70
21895;DHT22;11112;51.270;7.224;2023-06-14T10:44:44;23.60;54.90
21895;DHT22;11112;51.270;7.224;2023-06-14T10:47:26;23.60;54.00
21895;DHT22;11112;51.270;7.224;2023-06-14T10:49:54;23.60;54.00
21895;DHT22;11112;51.270;7.224;2023-06-14T10:52:24;23.60;54.50
21895;DHT22;11112;51.270;7.224;2023-06-14T10:55:09;23.60;54.20
21895;DHT22;11112;51.270;7.224;2023-06-14T10:57:39;23.60;54.00
21895;DHT22;11112;51.270;7.224;2023-06-14T11:00:11;23.60;53.70
21895;DHT22;11112;51.270;7.224;2023-06-14T11:02:52;23.60;54.60
21895;DHT22;11112;51.270;7.224;2023-06-14T11:05:39;23.60;54.60
21895;DHT22;11112;51.270;7.224;2023-06-14T11:11:32;23.60;55.10
21895;DHT22;11112;51.270;7.224;2023-06-14T11:14:00;23.60;54.60
21895;DHT22;11112;51.270;7.224;2023-06-14T11:16:29;23.60;55.50
21895;DHT22;11112;51.270;7.224;2023-06-14T11:19:00;23.60;54.50
21895;DHT22;11112;51.270;7.224;2023-06-14T11:21:31;23.60;54.80
21895;DHT22;11112;51.270;7.224;2023-06-14T11:23:59;23.60;55.70
21895;DHT22;11112;51.270;7.224;2023-06-14T11:26:27;23.60;55.80
21895;DHT22;11112;51.270;7.224;2023-06-14T11:28:58;23.60;55.50
21895;DHT22;11112;51.270;7.224;2023-06-14T11:31:26;23.60;55.90
21895;DHT22;11112;51.270;7.224;2023-06-14T11:33:56;23.60;55.90
21895;DHT22;11112;51.270;7.224;2023-06-14T11:36:26;23.60;56.30
21895;DHT22;11112;51.270;7.224;2023-06-14T11:38:58;23.60;55.80
21895;DHT22;11112;51.270;7.224;2023-06-14T11:41:32;23.60;55.30
21895;DHT22;11112;51.270;7.224;2023-06-14T11:44:01;23.60;55.20
21895;DHT22;11112;51.270;7.224;2023-06-14T11:46:30;23.60;55.30
21895;DHT22;11112;51.270;7.224;2023-06-14T11:48:57;23.50;55.60
21895;DHT22;11112;51.270;7.224;2023-06-14T11:51:24;23.60;56.00
21895;DHT22;11112;51.270;7.224;2023-06-14T11:53:51;23.60;56.30
21895;DHT22;11112;51.270;7.224;2023-06-14T11:56:19;23.60;55.90
21895;DHT22;11112;51.270;7.224;2023-06-14T11:58:46;23.60;55.90
21895;DHT22;11112;51.270;7.224;2023-06-14T12:01:16;23.60;56.00
21895;DHT22;11112;51.270;7.224;2023-06-14T12:03:49;23.60;55.80
21895;DHT22;11112;51.270;7.224;2023-06-14T12:06:24;23.60;56.50
21895;DHT22;11112;51.270;7.224;2023-06-14T12:08:55;23.70;56.40
21895;DHT22;11112;51.270;7.224;2023-06-14T12:11:22;23.70;55.50
21895;DHT22;11112;51.270;7.224;2023-06-14T12:13:49;23.60;55.30
21895;DHT22;11112;51.270;7.224;2023-06-14T12:16:17;23.60;55.50
21895;DHT22;11112;51.270;7.224;2023-06-14T12:18:44;23.60;55.20
21895;DHT22;11112;51.270;7.224;2023-06-14T12:21:12;23.70;55.40
21895;DHT22;11112;51.270;7.224;2023-06-14T12:23:43;23.70;55.50
21895;DHT22;11112;51.270;7.224;2023-06-14T12:26:21;23.70;55.90
21895;DHT22;11112;51.270;7.224;2023-06-14T12:28:48;23.70;55.60
21895;DHT22;11112;51.270;7.224;2023-06-14T12:31:16;23.70;55.10
21895;DHT22;11112;51.270;7.224;2023-06-14T12:33:44;23.80;54.90
21895;DHT22;11112;51.270;7.224;2023-06-14T12:36:16;23.80;55.40
21895;DHT22;11112;51.270;7.224;2023-06-14T12:38:43;23.80;55.70
21895;DHT22;11112;51.270;7.224;2023-06-14T12:41:11;23.70;56.30
21895;DHT22;11112;51.270;7.224;2023-06-14T12:43:39;23.70;56.20
21895;DHT22;11112;51.270;7.224;2023-06-14T12:46:06;23.80;56.60
21895;DHT22;11112;51.270;7.224;2023-06-14T12:48:33;23.80;56.50
21895;DHT22;11112;51.270;7.224;2023-06-14T12:51:01;23.80;55.10
21895;DHT22;11112;51.270;7.224;2023-06-14T12:53:29;23.70;53.20
21895;DHT22;11112;51.270;7.224;2023-06-14T12:55:56;23.80;52.60
21895;DHT22;11112;51.270;7.224;2023-06-14T12:58:23;23.80;52.70
21895;DHT22;11112;51.270;7.224;2023-06-14T13:00:50;23.90;52.70
21895;DHT22;11112;51.270;7.224;2023-06-14T13:03:18;23.90;52.60
21895;DHT22;11112;51.270;7.224;2023-06-14T13:05:45;23.90;52.90
21895;DHT22;11112;51.270;7.224;2023-06-14T13:08:12;23.90;53.20
21895;DHT22;11112;51.270;7.224;2023-06-14T13:10:40;23.80;54.20
21895;DHT22;11112;51.270;7.224;2023-06-14T13:13:07;23.80;54.50
21895;DHT22;11112;51.270;7.224;2023-06-14T13:15:35;23.80;54.00
21895;DHT22;11112;51.270;7.224;2023-06-14T13:18:02;23.80;52.90
21895;DHT22;11112;51.270;7.224;2023-06-14T13:20:29;23.80;52.70
21895;DHT22;11112;51.270;7.224;2023-06-14T13:22:56;23.90;53.20
21895;DHT22;11112;51.270;7.224;2023-06-14T13:25:24;23.80;53.30
21895;DHT22;11112;51.270;7.224;2023-06-14T13:27:52;23.90;52.80
21895;DHT22;11112;51.270;7.224;2023-06-14T13:30:19;23.90;52.50
21895;DHT22;11112;51.270;7.224;2023-06-14T13:32:47;23.90;52.30
21895;DHT22;11112;51.270;7.224;2023-06-14T13:35:16;23.90;51.80
21895;DHT22;11112;51.270;7.224;2023-06-14T13:37:43;23.90;52.80
21895;DHT22;11112;51.270;7.224;2023-06-14T13:40:12;23.90;53.50
21895;DHT22;11112;51.270;7.224;2023-06-14T13:42:39;24.00;54.10
21895;DHT22;11112;51.270;7.224;2023-06-14T13:45:10;24.00;53.60
21895;DHT22;11112;51.270;7.224;2023-06-14T13:47:38;24.00;53.10
21895;DHT22;11112;51.270;7.224;2023-06-14T13:50:06;24.00;53.00
21895;DHT22;11112;51.270;7.224;2023-06-14T13:52:34;24.00;52.90
21895;DHT22;11112;51.270;7.224;2023-06-14T13:55:02;23.90;52.10
21895;DHT22;11112;51.270;7.224;2023-06-14T13:57:34;23.90;50.90
21895;DHT22;11112;51.270;7.224;2023-06-14T14:00:06;23.80;51.30
21895;DHT22;11112;51.270;7.224;2023-06-14T14:02:52;23.90;51.90
21895;DHT22;11112;51.270;7.224;2023-06-14T14:05:26;23.90;52.20
21895;DHT22;11112;51.270;7.224;2023-06-14T14:07:55;24.00;52.30
21895;DHT22;11112;51.270;7.224;2023-06-14T14:10:22;24.00;52.20
21895;DHT22;11112;51.270;7.224;2023-06-14T14:12:50;24.10;52.60
21895;DHT22;11112;51.270;7.224;2023-06-14T14:15:19;24.10;51.80
21895;DHT22;11112;51.270;7.224;2023-06-14T14:17:47;24.10;51.60
21895;DHT22;11112;51.270;7.224;2023-06-14T14:20:14;24.00;51.30
21895;DHT22;11112;51.270;7.224;2023-06-14T14:22:42;24.10;51.50
21895;DHT22;11112;51.270;7.224;2023-06-14T14:25:10;24.10;51.20
21895;DHT22;11112;51.270;7.224;2023-06-14T14:27:37;24.10;51.70
21895;DHT22;11112;51.270;7.224;2023-06-14T14:30:06;24.10;51.80
21895;DHT22;11112;51.270;7.224;2023-06-14T14:32:35;24.10;51.70
21895;DHT22;11112;51.270;7.224;2023-06-14T14:35:03;24.10;51.10
21895;DHT22;11112;51.270;7.224;2023-06-14T14:37:30;24.10;50.60
21895;DHT22;11112;51.270;7.224;2023-06-14T14:39:57;24.10;50.70
21895;DHT22;11112;51.270;7.224;2023-06-14T14:42:24;24.00;50.10
21895;DHT22;11112;51.270;7.224;2023-06-14T14:44:52;24.00;50.80
21895;DHT22;11112;51.270;7.224;2023-06-14T14:47:19;24.00;51.30
21895;DHT22;11112;51.270;7.224;2023-06-14T14:49:48;24.10;51.30
21895;DHT22;11112;51.270;7.224;2023-06-14T14:52:15;24.10;51.50
21895;DHT22;11112;51.270;7.224;2023-06-14T14:54:42;24.10;51.50
21895;DHT22;11112;51.270;7.224;2023-06-14T14:57:09;24.10;51.10
21895;DHT22;11112;51.270;7.224;2023-06-14T14:59:36;24.20;50.80
21895;DHT22;11112;51.270;7.224;2023-06-14T15:02:03;24.20;51.20
21895;DHT22;11112;51.270;7.224;2023-06-14T15:04:31;24.10;51.00
21895;DHT22;11112;51.270;7.224;2023-06-14T15:06:59;24.10;51.10
21895;DHT22;11112;51.270;7.224;2023-06-14T15:09:26;24.10;50.60
21895;DHT22;11112;51.270;7.224;2023-06-14T15:11:53;24.10;50.70
21895;DHT22;11112;51.270;7.224;2023-06-14T15:14:20;24.10;50.20
21895;DHT22;11112;51.270;7.224;2023-06-14T15:16:47;24.10;50.30
21895;DHT22;11112;51.270;7.224;2023-06-14T15:19:17;24.10;50.70
21895;DHT22;11112;51.270;7.224;2023-06-14T15:21:44;24.10;50.90
21895;DHT22;11112;51.270;7.224;2023-06-14T15:24:12;24.10;51.10
21895;DHT22;11112;51.270;7.224;2023-06-14T15:26:39;24.10;51.70
21895;DHT22;11112;51.270;7.224;2023-06-14T15:29:06;24.10;51.50
21895;DHT22;11112;51.270;7.224;2023-06-14T15:31:33;24.20;51.40
21895;DHT22;11112;51.270;7.224;2023-06-14T15:34:01;24.10;51.10
21895;DHT22;11112;51.270;7.224;2023-06-14T15:36:28;24.10;51.40
21895;DHT22;11112;51.270;7.224;2023-06-14T15:38:55;24.10;51.20
21895;DHT22;11112;51.270;7.224;2023-06-14T15:41:23;24.00;50.80